Time;durP1;ratioP1;P1;durP2;ratioP2;P2;SDS_P1;SDS_P2;PMS_P1;PMS_P2;Temp;Humidity;BMP_temperature;BMP_pressure;BME280_temperature;BME280_humidity;BME280_pressure;Samples;Min_cycle;Max_cycle;Signal;HPM_P1;HPM_P2
2021/09/10 00:02:00;;;;;;;9.80;8.13;;;;;;;;;;5013588;28;20473;-64
2021/09/10 00:04:26;;;;;;;8.33;7.43;;;;;;;;;;5015751;28;20435;-64
2021/09/10 00:06:52;;;;;;;8.43;7.53;;;;;;;;;;5013624;28;20423;-64
2021/09/10 00:09:19;;;;;;;8.50;7.20;;;;;;;;;;5015704;28;20404;-64
2021/09/10 00:11:45;;;;;;;9.00;7.73;;;;;;;;;;4999669;28;21047;-64
2021/09/10 00:14:11;;;;;;;9.87;7.70;;;;;;;;;;4996292;28;20970;-64
2021/09/10 00:16:37;;;;;;;8.40;7.50;;;;;;;;;;5010304;28;20796;-63
2021/09/10 00:19:03;;;;;;;8.83;7.37;;;;;;;;;;5014002;28;20455;-64
2021/09/10 00:21:29;;;;;;;9.17;7.77;;;;;;;;;;5013331;28;20422;-63
2021/09/10 00:23:55;;;;;;;11.30;8.40;;;;;;;;;;4998030;28;20428;-64
2021/09/10 00:26:21;;;;;;;12.73;9.83;;;;;;;;;;5014598;28;20424;-64
2021/09/10 00:28:48;;;;;;;8.63;7.60;;;;;;;;;;5015512;28;20404;-64
2021/09/10 00:31:14;;;;;;;10.60;8.70;;;;;;;;;;5013600;28;20434;-64
2021/09/10 00:33:40;;;;;;;9.40;7.80;;;;;;;;;;5015277;28;20995;-65
2021/09/10 00:36:06;;;;;;;12.03;7.63;;;;;;;;;;5014826;28;20734;-64
2021/09/10 00:38:32;;;;;;;9.80;8.60;;;;;;;;;;5015650;28;20603;-64
2021/09/10 00:40:58;;;;;;;10.23;7.47;;;;;;;;;;5014558;28;20489;-65
2021/09/10 00:43:24;;;;;;;10.43;8.30;;;;;;;;;;5015387;28;20428;-65
2021/09/10 00:45:50;;;;;;;11.53;7.87;;;;;;;;;;5014090;28;20518;-65
2021/09/10 00:48:20;;;;;;;10.27;8.33;;;;;;;;;;5015203;28;20403;-65
2021/09/10 00:50:46;;;;;;;9.10;8.13;;;;;;;;;;5013967;28;20436;-64
2021/09/10 00:53:12;;;;;;;12.40;8.47;;;;;;;;;;5014807;28;20483;-64
2021/09/10 00:55:39;;;;;;;14.13;8.60;;;;;;;;;;5012819;28;20428;-65
2021/09/10 00:58:05;;;;;;;9.97;8.60;;;;;;;;;;5011735;28;20410;-66
2021/09/10 01:00:31;;;;;;;11.93;8.67;;;;;;;;;;4998347;28;20439;-65
2021/09/10 01:02:57;;;;;;;13.07;7.93;;;;;;;;;;5003017;28;20452;-65
2021/09/10 01:05:23;;;;;;;9.80;8.00;;;;;;;;;;4999445;28;20462;-65
2021/09/10 01:07:51;;;;;;;10.80;8.50;;;;;;;;;;4995158;28;20459;-65
2021/09/10 01:10:18;;;;;;;15.53;9.10;;;;;;;;;;5008366;28;20432;-65
2021/09/10 01:12:44;;;;;;;9.57;7.80;;;;;;;;;;5014552;28;20431;-65
2021/09/10 01:15:10;;;;;;;10.27;8.33;;;;;;;;;;5013952;28;20467;-64
2021/09/10 01:17:37;;;;;;;9.50;7.83;;;;;;;;;;5014551;28;20455;-64
2021/09/10 01:20:04;;;;;;;11.03;8.33;;;;;;;;;;5013662;28;20514;-65
2021/09/10 01:22:30;;;;;;;9.40;8.07;;;;;;;;;;5014566;28;20423;-65
2021/09/10 01:25:13;;;;;;;11.47;8.33;;;;;;;;;;5013529;28;20432;-64
2021/09/10 01:27:43;;;;;;;9.00;7.93;;;;;;;;;;5014460;28;20434;-64
2021/09/10 01:30:10;;;;;;;8.83;7.93;;;;;;;;;;5013740;28;20767;-65
2021/09/10 01:32:36;;;;;;;10.70;8.87;;;;;;;;;;5014174;28;20431;-66
2021/09/10 01:35:03;;;;;;;13.27;9.67;;;;;;;;;;5013079;28;20553;-64
2021/09/10 01:37:29;;;;;;;11.20;8.93;;;;;;;;;;5014271;28;20400;-66
2021/09/10 01:39:55;;;;;;;10.13;9.03;;;;;;;;;;4994525;28;20927;-65
2021/09/10 01:42:21;;;;;;;13.03;9.50;;;;;;;;;;5014141;28;20499;-64
2021/09/10 01:44:47;;;;;;;12.30;10.10;;;;;;;;;;5013062;28;20432;-65
2021/09/10 01:47:13;;;;;;;11.20;8.97;;;;;;;;;;5013992;28;20442;-64
2021/09/10 01:49:39;;;;;;;11.53;8.93;;;;;;;;;;5012937;28;20431;-64
2021/09/10 01:52:06;;;;;;;11.80;8.70;;;;;;;;;;5013835;28;20410;-64
2021/09/10 01:54:32;;;;;;;11.00;8.77;;;;;;;;;;5012037;28;20467;-64
2021/09/10 01:56:58;;;;;;;10.00;8.20;;;;;;;;;;5013769;28;20407;-64
2021/09/10 01:59:24;;;;;;;10.50;8.57;;;;;;;;;;5010535;28;20428;-64
2021/09/10 02:01:50;;;;;;;10.23;9.13;;;;;;;;;;5009080;28;20407;-64
2021/09/10 02:04:18;;;;;;;9.80;8.77;;;;;;;;;;4993883;28;20425;-62
2021/09/10 02:06:44;;;;;;;9.57;8.50;;;;;;;;;;5012452;28;20746;-64
2021/09/10 02:09:10;;;;;;;13.17;9.33;;;;;;;;;;5013853;28;20408;-64
2021/09/10 02:11:36;;;;;;;10.50;8.73;;;;;;;;;;5008419;28;20762;-64
2021/09/10 02:14:03;;;;;;;13.93;9.70;;;;;;;;;;5013318;28;20554;-64
2021/09/10 02:16:29;;;;;;;11.73;8.70;;;;;;;;;;5012793;28;20438;-63
2021/09/10 02:18:55;;;;;;;12.40;8.90;;;;;;;;;;4995806;28;20416;-64
2021/09/10 02:21:21;;;;;;;11.30;9.27;;;;;;;;;;5012566;28;20428;-61
2021/09/10 02:23:47;;;;;;;10.60;8.83;;;;;;;;;;5013249;28;20428;-63
2021/09/10 02:26:14;;;;;;;9.77;8.33;;;;;;;;;;5010728;28;20478;-63
2021/09/10 02:28:40;;;;;;;11.20;7.73;;;;;;;;;;5013380;28;20411;-64
2021/09/10 02:31:06;;;;;;;11.70;8.73;;;;;;;;;;5000365;28;20433;-65
2021/09/10 02:33:32;;;;;;;9.83;8.47;;;;;;;;;;5005569;28;20988;-64
2021/09/10 02:35:59;;;;;;;9.53;7.53;;;;;;;;;;5012301;28;20434;-64
2021/09/10 02:38:25;;;;;;;10.50;7.63;;;;;;;;;;5010431;28;20877;-64
2021/09/10 02:40:51;;;;;;;11.10;8.40;;;;;;;;;;5002924;28;20984;-64
2021/09/10 02:43:17;;;;;;;9.97;8.30;;;;;;;;;;5013188;28;20424;-64
2021/09/10 02:45:44;;;;;;;12.90;9.20;;;;;;;;;;5012262;28;20442;-64
2021/09/10 02:48:10;;;;;;;10.23;7.73;;;;;;;;;;5013419;28;20412;-64
2021/09/10 02:50:36;;;;;;;11.07;8.17;;;;;;;;;;5012330;28;20812;-64
2021/09/10 02:53:02;;;;;;;12.10;8.90;;;;;;;;;;5012930;28;20419;-64
2021/09/10 02:55:28;;;;;;;10.67;9.07;;;;;;;;;;5012209;28;20909;-64
2021/09/10 02:57:54;;;;;;;11.63;9.70;;;;;;;;;;5012948;28;20402;-64
2021/09/10 03:00:20;;;;;;;9.20;8.20;;;;;;;;;;5008279;28;20499;-65
2021/09/10 03:02:46;;;;;;;9.43;8.30;;;;;;;;;;4993550;28;20580;-65
2021/09/10 03:05:13;;;;;;;8.63;7.33;;;;;;;;;;4996589;28;20427;-65
2021/09/10 03:07:40;;;;;;;10.37;8.67;;;;;;;;;;5012501;28;20451;-64
2021/09/10 03:10:07;;;;;;;14.20;9.70;;;;;;;;;;5011976;28;20439;-65
2021/09/10 03:12:35;;;;;;;11.87;9.27;;;;;;;;;;5012971;28;20958;-64
2021/09/10 03:15:01;;;;;;;11.00;8.77;;;;;;;;;;5011842;28;20455;-65
2021/09/10 03:17:27;;;;;;;11.17;8.57;;;;;;;;;;5012841;28;20461;-64
2021/09/10 03:19:53;;;;;;;10.03;8.63;;;;;;;;;;5013836;28;20519;-66
2021/09/10 03:22:19;;;;;;;14.63;9.40;;;;;;;;;;5016674;28;20450;-64
2021/09/10 03:24:45;;;;;;;13.67;10.00;;;;;;;;;;5016495;28;20410;-64
2021/09/10 03:27:13;;;;;;;10.60;8.93;;;;;;;;;;5015581;28;20510;-65
2021/09/10 03:29:39;;;;;;;10.90;8.80;;;;;;;;;;5016628;28;20743;-65
2021/09/10 03:32:05;;;;;;;10.10;8.63;;;;;;;;;;5009929;28;20424;-65
2021/09/10 03:34:31;;;;;;;9.07;7.90;;;;;;;;;;5008122;28;20471;-64
2021/09/10 03:36:57;;;;;;;13.13;9.77;;;;;;;;;;5014641;28;20920;-65
2021/09/10 03:39:23;;;;;;;12.37;8.30;;;;;;;;;;5004717;28;20415;-64
2021/09/10 03:41:49;;;;;;;13.63;9.17;;;;;;;;;;5014401;28;20947;-64
2021/09/10 03:44:15;;;;;;;10.97;9.20;;;;;;;;;;5016001;28;20532;-65
2021/09/10 03:46:41;;;;;;;10.70;8.43;;;;;;;;;;5015508;28;20423;-64
2021/09/10 03:49:07;;;;;;;11.77;9.27;;;;;;;;;;5016150;28;20403;-64
2021/09/10 03:51:34;;;;;;;12.67;10.13;;;;;;;;;;5014044;28;20437;-64
2021/09/10 03:54:00;;;;;;;13.43;10.27;;;;;;;;;;5015822;28;20547;-65
2021/09/10 03:56:26;;;;;;;12.73;8.90;;;;;;;;;;5015179;28;20785;-64
2021/09/10 03:58:52;;;;;;;11.13;8.93;;;;;;;;;;5015948;28;20396;-65
2021/09/10 04:01:18;;;;;;;14.37;9.57;;;;;;;;;;5003705;28;20909;-64
2021/09/10 04:03:44;;;;;;;12.90;10.17;;;;;;;;;;4996160;28;20467;-64
2021/09/10 04:06:11;;;;;;;12.60;10.40;;;;;;;;;;4985661;28;20470;-64
2021/09/10 04:08:37;;;;;;;13.63;9.87;;;;;;;;;;5015667;28;20426;-64
2021/09/10 04:11:03;;;;;;;11.00;9.10;;;;;;;;;;5015064;28;20458;-64
2021/09/10 04:13:29;;;;;;;13.13;9.63;;;;;;;;;;5013829;28;20814;-65
2021/09/10 04:15:55;;;;;;;10.80;9.57;;;;;;;;;;4997404;28;20435;-64
2021/09/10 04:18:21;;;;;;;11.80;8.90;;;;;;;;;;5015911;28;20491;-64
2021/09/10 04:20:48;;;;;;;14.63;10.53;;;;;;;;;;5014660;28;20427;-64
2021/09/10 04:23:14;;;;;;;12.80;10.60;;;;;;;;;;5015680;28;20424;-64
2021/09/10 04:25:40;;;;;;;10.53;8.87;;;;;;;;;;5014073;28;20428;-64
2021/09/10 04:28:07;;;;;;;12.40;9.90;;;;;;;;;;5014926;28;20432;-64
2021/09/10 04:30:33;;;;;;;10.87;9.13;;;;;;;;;;5014535;28;20463;-64
2021/09/10 04:32:59;;;;;;;15.23;9.17;;;;;;;;;;5015445;28;20464;-64
2021/09/10 04:35:25;;;;;;;11.57;9.20;;;;;;;;;;5014161;28;20770;-65
2021/09/10 04:37:51;;;;;;;11.67;9.80;;;;;;;;;;5015347;28;20955;-65
2021/09/10 04:40:18;;;;;;;15.00;11.13;;;;;;;;;;5014626;28;20418;-65
2021/09/10 04:42:45;;;;;;;13.80;10.40;;;;;;;;;;5014824;28;20423;-65
2021/09/10 04:45:11;;;;;;;13.97;11.17;;;;;;;;;;5015116;28;20400;-64
2021/09/10 04:47:37;;;;;;;13.17;11.10;;;;;;;;;;5012051;28;20446;-65
2021/09/10 04:50:03;;;;;;;16.53;10.57;;;;;;;;;;5015014;28;20538;-64
2021/09/10 04:52:29;;;;;;;12.60;10.20;;;;;;;;;;5013031;28;20435;-64
2021/09/10 04:54:55;;;;;;;13.53;9.90;;;;;;;;;;5014998;28;20466;-64
2021/09/10 04:57:21;;;;;;;12.47;9.50;;;;;;;;;;5014110;28;20423;-63
2021/09/10 04:59:48;;;;;;;13.50;9.40;;;;;;;;;;5014811;28;20400;-64
2021/09/10 05:02:14;;;;;;;13.90;11.27;;;;;;;;;;5013961;28;20426;-63
2021/09/10 05:04:40;;;;;;;18.50;9.50;;;;;;;;;;5014764;28;20821;-64
2021/09/10 05:07:06;;;;;;;12.20;9.53;;;;;;;;;;5013707;28;20438;-63
2021/09/10 05:09:32;;;;;;;15.60;10.30;;;;;;;;;;5014699;28;20411;-64
2021/09/10 05:11:58;;;;;;;11.80;10.40;;;;;;;;;;5013731;28;20486;-65
2021/09/10 05:14:24;;;;;;;13.40;9.80;;;;;;;;;;4996928;28;20521;-64
2021/09/10 05:16:50;;;;;;;12.37;10.13;;;;;;;;;;5007127;28;20428;-65
2021/09/10 05:19:16;;;;;;;13.37;9.80;;;;;;;;;;4995220;28;20405;-65
2021/09/10 05:21:42;;;;;;;14.33;9.93;;;;;;;;;;4999329;28;20797;-65
2021/09/10 05:24:08;;;;;;;21.73;13.67;;;;;;;;;;5014378;28;20424;-64
2021/09/10 05:26:34;;;;;;;23.90;13.90;;;;;;;;;;5002413;28;20434;-64
2021/09/10 05:29:00;;;;;;;23.53;13.73;;;;;;;;;;5014466;28;20414;-64
2021/09/10 05:31:26;;;;;;;15.27;11.17;;;;;;;;;;5013188;28;20512;-65
2021/09/10 05:33:53;;;;;;;15.90;10.87;;;;;;;;;;5014153;28;20872;-64
2021/09/10 05:36:20;;;;;;;15.73;10.47;;;;;;;;;;5013278;28;20482;-65
2021/09/10 05:38:46;;;;;;;16.23;10.30;;;;;;;;;;4994464;28;20405;-64
2021/09/10 05:41:12;;;;;;;16.50;9.60;;;;;;;;;;4993695;28;20500;-64
2021/09/10 05:43:38;;;;;;;14.10;10.50;;;;;;;;;;5012487;28;20963;-64
2021/09/10 05:46:04;;;;;;;12.00;9.57;;;;;;;;;;5013776;28;20400;-65
2021/09/10 05:48:30;;;;;;;14.40;9.63;;;;;;;;;;5012297;28;20482;-64
2021/09/10 05:50:56;;;;;;;18.50;10.07;;;;;;;;;;5013796;28;20857;-64
2021/09/10 05:53:22;;;;;;;11.50;9.00;;;;;;;;;;5013235;28;20944;-64
2021/09/10 05:55:48;;;;;;;11.67;9.07;;;;;;;;;;5014244;28;20491;-64
2021/09/10 05:58:14;;;;;;;12.80;8.57;;;;;;;;;;5012224;28;20482;-64
2021/09/10 06:00:40;;;;;;;14.73;10.53;;;;;;;;;;5013824;28;20498;-64
2021/09/10 06:03:06;;;;;;;12.23;9.33;;;;;;;;;;5012697;28;20479;-64
2021/09/10 06:05:32;;;;;;;14.53;9.90;;;;;;;;;;5013575;28;20411;-65
2021/09/10 06:07:59;;;;;;;14.07;9.00;;;;;;;;;;5012495;28;20458;-65
2021/09/10 06:10:25;;;;;;;11.13;8.67;;;;;;;;;;5013766;28;20407;-65
2021/09/10 06:12:51;;;;;;;14.77;9.30;;;;;;;;;;5012431;28;20470;-65
2021/09/10 06:15:17;;;;;;;11.20;9.50;;;;;;;;;;5013291;28;20594;-65
2021/09/10 06:17:43;;;;;;;12.00;8.33;;;;;;;;;;5010538;28;20542;-65
2021/09/10 06:20:10;;;;;;;12.10;8.77;;;;;;;;;;5013200;28;20404;-64
2021/09/10 06:22:37;;;;;;;12.57;8.70;;;;;;;;;;5012545;28;20475;-66
2021/09/10 06:25:03;;;;;;;13.33;8.03;;;;;;;;;;5013504;28;20874;-65
2021/09/10 06:27:30;;;;;;;13.90;9.40;;;;;;;;;;5012406;28;20966;-64
2021/09/10 06:29:56;;;;;;;11.37;8.40;;;;;;;;;;5013233;28;20407;-64
2021/09/10 06:32:24;;;;;;;10.60;8.33;;;;;;;;;;5009732;28;20859;-65
2021/09/10 06:34:50;;;;;;;13.77;7.40;;;;;;;;;;5013184;28;20849;-65
2021/09/10 06:37:16;;;;;;;12.60;8.73;;;;;;;;;;5012159;28;20920;-65
2021/09/10 06:39:42;;;;;;;9.73;8.00;;;;;;;;;;5013068;28;20412;-64
2021/09/10 06:42:08;;;;;;;11.37;7.60;;;;;;;;;;5012059;28;20430;-65
2021/09/10 06:44:34;;;;;;;9.90;6.63;;;;;;;;;;5013417;28;20408;-65
2021/09/10 06:47:00;;;;;;;11.33;8.00;;;;;;;;;;5011146;28;20423;-65
2021/09/10 06:49:26;;;;;;;9.80;7.33;;;;;;;;;;5013077;28;20404;-65
2021/09/10 06:51:52;;;;;;;8.47;6.60;;;;;;;;;;5012753;28;20509;-63
2021/09/10 06:54:18;;;;;;;7.90;6.57;;;;;;;;;;5016398;28;21080;-65
2021/09/10 06:56:44;;;;;;;11.20;6.53;;;;;;;;;;5011405;28;21155;-64
2021/09/10 06:59:11;;;;;;;9.67;7.10;;;;;;;;;;4984466;28;20423;-63
2021/09/10 07:01:37;;;;;;;8.90;6.33;;;;;;;;;;4985645;28;20485;-64
2021/09/10 07:04:03;;;;;;;8.47;6.43;;;;;;;;;;5008249;28;20457;-63
2021/09/10 07:06:30;;;;;;;8.17;6.70;;;;;;;;;;5012754;28;20453;-63
2021/09/10 07:08:56;;;;;;;7.90;6.63;;;;;;;;;;5012989;28;20808;-64
2021/09/10 07:11:23;;;;;;;10.07;6.77;;;;;;;;;;5014549;28;20424;-64
2021/09/10 07:13:49;;;;;;;8.93;6.40;;;;;;;;;;5014232;28;21096;-64
2021/09/10 07:16:15;;;;;;;13.87;6.73;;;;;;;;;;5011309;28;20834;-64
2021/09/10 07:18:41;;;;;;;8.00;5.83;;;;;;;;;;5011536;28;20422;-63
2021/09/10 07:21:08;;;;;;;6.90;6.20;;;;;;;;;;5012357;28;20423;-64
2021/09/10 07:23:34;;;;;;;8.40;6.43;;;;;;;;;;4995932;28;21010;-64
2021/09/10 07:26:03;;;;;;;9.20;5.80;;;;;;;;;;5011417;28;20431;-64
2021/09/10 07:28:33;;;;;;;8.27;6.23;;;;;;;;;;5013454;28;20435;-63
2021/09/10 07:30:59;;;;;;;7.60;6.13;;;;;;;;;;5009820;28;20447;-66
2021/09/10 07:33:28;;;;;;;6.80;5.03;;;;;;;;;;5011778;28;20475;-67
2021/09/10 07:35:54;;;;;;;9.33;6.30;;;;;;;;;;5006035;28;20518;-65
2021/09/10 07:38:20;;;;;;;8.60;6.20;;;;;;;;;;5011397;28;20418;-65
2021/09/10 07:40:47;;;;;;;6.90;5.50;;;;;;;;;;5010301;28;22519;-65
2021/09/10 07:43:13;;;;;;;9.30;6.80;;;;;;;;;;4988622;28;20520;-67
2021/09/10 07:45:40;;;;;;;6.87;5.60;;;;;;;;;;5010753;28;20792;-65
2021/09/10 07:48:06;;;;;;;6.27;5.67;;;;;;;;;;5013541;28;20415;-65
2021/09/10 07:50:32;;;;;;;6.07;5.47;;;;;;;;;;5013638;28;20808;-65
2021/09/10 07:52:58;;;;;;;6.03;5.27;;;;;;;;;;5015250;28;20432;-66
2021/09/10 07:55:24;;;;;;;7.80;5.90;;;;;;;;;;5012474;28;20467;-66
2021/09/10 07:57:50;;;;;;;7.80;5.97;;;;;;;;;;5014448;28;20511;-66
2021/09/10 08:00:21;;;;;;;9.40;6.23;;;;;;;;;;5007671;28;20435;-66
2021/09/10 08:02:48;;;;;;;9.30;6.07;;;;;;;;;;5012650;28;20444;-64
2021/09/10 08:05:14;;;;;;;8.17;5.73;;;;;;;;;;5011154;28;20467;-69
2021/09/10 08:07:40;;;;;;;12.00;6.33;;;;;;;;;;5013724;28;20434;-67
2021/09/10 08:10:06;;;;;;;6.37;5.27;;;;;;;;;;5006247;28;20437;-69
2021/09/10 08:12:32;;;;;;;7.77;5.63;;;;;;;;;;5007979;28;20456;-68
2021/09/10 08:14:59;;;;;;;11.43;7.23;;;;;;;;;;5010741;28;20514;-68
2021/09/10 08:17:25;;;;;;;9.23;6.60;;;;;;;;;;5009023;28;20419;-68
2021/09/10 08:19:51;;;;;;;12.03;5.80;;;;;;;;;;5012913;28;20920;-68
2021/09/10 08:22:17;;;;;;;7.37;5.70;;;;;;;;;;5010956;28;20457;-65
2021/09/10 08:24:47;;;;;;;9.33;6.10;;;;;;;;;;5010670;28;20420;-65
2021/09/10 08:27:13;;;;;;;6.87;5.50;;;;;;;;;;5009441;28;20428;-66
2021/09/10 08:29:39;;;;;;;8.60;5.67;;;;;;;;;;5012036;28;20839;-65
2021/09/10 08:32:05;;;;;;;7.33;5.37;;;;;;;;;;5008310;28;20578;-66
2021/09/10 08:34:31;;;;;;;7.60;5.53;;;;;;;;;;5011117;28;20466;-66
2021/09/10 08:36:57;;;;;;;7.47;5.90;;;;;;;;;;5009922;28;20444;-66
2021/09/10 08:39:23;;;;;;;8.10;5.67;;;;;;;;;;5012965;28;20426;-66
2021/09/10 08:41:49;;;;;;;7.27;5.60;;;;;;;;;;5012402;28;20426;-66
2021/09/10 08:44:17;;;;;;;8.50;6.00;;;;;;;;;;5007678;28;20877;-66
2021/09/10 08:46:45;;;;;;;6.20;5.23;;;;;;;;;;5012777;28;20427;-66
2021/09/10 08:49:14;;;;;;;6.13;5.20;;;;;;;;;;5018881;28;20525;-66
2021/09/10 08:51:40;;;;;;;7.87;5.27;;;;;;;;;;5015184;28;20458;-66
2021/09/10 08:54:06;;;;;;;5.67;4.87;;;;;;;;;;5009754;28;20471;-66
2021/09/10 08:56:32;;;;;;;7.80;5.30;;;;;;;;;;5007174;28;20445;-66
2021/09/10 08:59:11;;;;;;;9.43;6.10;;;;;;;;;;5013834;28;20990;-66
2021/09/10 09:01:47;;;;;;;9.10;6.10;;;;;;;;;;5001866;28;20469;-66
2021/09/10 09:04:13;;;;;;;7.03;5.80;;;;;;;;;;5004560;28;20965;-65
2021/09/10 09:06:39;;;;;;;7.30;5.90;;;;;;;;;;5012297;28;20835;-66
2021/09/10 09:09:05;;;;;;;6.10;5.07;;;;;;;;;;5013046;28;20419;-66
2021/09/10 09:11:31;;;;;;;8.30;5.57;;;;;;;;;;5011532;28;20431;-66
2021/09/10 09:14:02;;;;;;;5.97;5.33;;;;;;;;;;5013275;28;20457;-66
2021/09/10 09:16:32;;;;;;;7.47;6.07;;;;;;;;;;5011991;28;20427;-67
2021/09/10 09:19:02;;;;;;;6.00;5.10;;;;;;;;;;5010426;28;20427;-66
2021/09/10 09:21:29;;;;;;;7.37;5.73;;;;;;;;;;5008162;28;20501;-66
2021/09/10 09:24:15;;;;;;;6.53;5.47;;;;;;;;;;4999251;28;20431;-66
2021/09/10 09:26:42;;;;;;;6.77;5.43;;;;;;;;;;5013903;28;20919;-66
2021/09/10 09:29:14;;;;;;;7.30;5.10;;;;;;;;;;5013032;28;20412;-66
2021/09/10 09:31:41;;;;;;;10.37;5.50;;;;;;;;;;5013907;28;20427;-67
2021/09/10 09:34:10;;;;;;;6.00;4.90;;;;;;;;;;5014698;28;20505;-66
2021/09/10 09:36:51;;;;;;;7.83;5.73;;;;;;;;;;5013544;28;20437;-66
2021/09/10 09:39:17;;;;;;;6.10;5.13;;;;;;;;;;5014639;28;20408;-67
2021/09/10 09:41:43;;;;;;;8.20;4.77;;;;;;;;;;5012133;28;20434;-67
2021/09/10 09:44:13;;;;;;;7.50;5.40;;;;;;;;;;5001832;28;20442;-67
2021/09/10 09:46:41;;;;;;;6.20;5.37;;;;;;;;;;5000596;28;20462;-67
2021/09/10 09:49:08;;;;;;;6.33;5.73;;;;;;;;;;5012931;28;20423;-66
2021/09/10 09:51:34;;;;;;;6.93;5.60;;;;;;;;;;5001508;28;20439;-67
2021/09/10 09:54:00;;;;;;;6.60;5.77;;;;;;;;;;5005629;28;20474;-66
2021/09/10 09:56:28;;;;;;;5.77;4.90;;;;;;;;;;5005075;28;20417;-66
2021/09/10 09:58:55;;;;;;;7.83;5.87;;;;;;;;;;5007181;28;20911;-66
2021/09/10 10:01:21;;;;;;;9.00;5.30;;;;;;;;;;5011386;28;20558;-66
2021/09/10 10:03:48;;;;;;;8.37;5.57;;;;;;;;;;5007703;28;20435;-66
2021/09/10 10:06:24;;;;;;;8.33;6.27;;;;;;;;;;5007360;28;20434;-66
2021/09/10 10:09:10;;;;;;;9.57;6.37;;;;;;;;;;5009384;28;20411;-67
2021/09/10 10:11:36;;;;;;;7.83;5.87;;;;;;;;;;5008765;28;20433;-66
2021/09/10 10:14:06;;;;;;;7.10;5.77;;;;;;;;;;5007310;28;20994;-67
2021/09/10 10:16:38;;;;;;;8.60;6.30;;;;;;;;;;5007346;28;20465;-66
2021/09/10 10:19:05;;;;;;;7.10;5.97;;;;;;;;;;5010081;28;20411;-66
2021/09/10 10:21:58;;;;;;;7.63;5.20;;;;;;;;;;5011090;28;20506;-66
2021/09/10 10:24:39;;;;;;;8.37;6.20;;;;;;;;;;5010986;28;20465;-66
2021/09/10 10:27:35;;;;;;;8.03;6.10;;;;;;;;;;5009420;28;20430;-66
2021/09/10 10:30:03;;;;;;;9.00;5.60;;;;;;;;;;4976456;28;20439;-66
2021/09/10 10:32:35;;;;;;;9.43;5.93;;;;;;;;;;5009787;28;20445;-67
2021/09/10 10:35:14;;;;;;;11.50;5.83;;;;;;;;;;5011234;28;20475;-67
2021/09/10 10:37:43;;;;;;;15.60;6.20;;;;;;;;;;5009559;28;21226;-66
2021/09/10 10:40:24;;;;;;;7.87;6.40;;;;;;;;;;5016749;28;20513;-66
2021/09/10 10:42:51;;;;;;;7.50;6.80;;;;;;;;;;5013744;28;20537;-66
2021/09/10 10:45:17;;;;;;;8.37;6.27;;;;;;;;;;5012797;28;20476;-66
2021/09/10 10:47:43;;;;;;;8.73;6.97;;;;;;;;;;5014597;28;20442;-66
2021/09/10 10:50:27;;;;;;;7.43;6.60;;;;;;;;;;5015058;28;20403;-66
2021/09/10 10:52:56;;;;;;;7.23;5.90;;;;;;;;;;4996685;28;20494;-67
2021/09/10 10:55:23;;;;;;;9.10;6.73;;;;;;;;;;5001914;28;20454;-66
2021/09/10 10:57:53;;;;;;;11.07;6.50;;;;;;;;;;5011431;28;20427;-66
2021/09/10 11:00:28;;;;;;;8.20;6.70;;;;;;;;;;5003949;28;20525;-65
2021/09/10 11:03:16;;;;;;;8.50;6.37;;;;;;;;;;4989523;28;20438;-66
2021/09/10 11:05:46;;;;;;;8.00;6.77;;;;;;;;;;4999079;28;20440;-66
2021/09/10 11:08:12;;;;;;;8.47;6.53;;;;;;;;;;5004481;28;20472;-66
2021/09/10 11:10:38;;;;;;;8.90;6.63;;;;;;;;;;5013303;28;20481;-66
2021/09/10 11:13:07;;;;;;;10.53;7.37;;;;;;;;;;5006090;28;20447;-66
2021/09/10 11:15:37;;;;;;;8.27;6.33;;;;;;;;;;4998579;28;20945;-65
2021/09/10 11:18:09;;;;;;;9.37;7.30;;;;;;;;;;5007158;28;20433;-67
2021/09/10 11:20:40;;;;;;;9.90;7.80;;;;;;;;;;5004495;28;20790;-67
2021/09/10 11:23:07;;;;;;;9.13;7.00;;;;;;;;;;5009889;28;20439;-67
2021/09/10 11:25:34;;;;;;;9.03;6.00;;;;;;;;;;5005942;28;20477;-66
2021/09/10 11:28:07;;;;;;;8.40;6.90;;;;;;;;;;5011782;28;21322;-66
2021/09/10 11:30:33;;;;;;;10.37;6.70;;;;;;;;;;5013791;28;20404;-67
2021/09/10 11:33:00;;;;;;;8.20;6.60;;;;;;;;;;5013146;28;20438;-67
2021/09/10 11:35:27;;;;;;;11.20;7.03;;;;;;;;;;5011993;28;20570;-67
2021/09/10 11:37:56;;;;;;;8.63;6.27;;;;;;;;;;5001040;28;21699;-67
2021/09/10 11:40:36;;;;;;;8.97;7.57;;;;;;;;;;5000311;28;20526;-67
2021/09/10 11:43:03;;;;;;;8.40;7.37;;;;;;;;;;5010383;28;20508;-66
2021/09/10 11:45:31;;;;;;;8.60;5.50;;;;;;;;;;5014896;28;20463;-66
2021/09/10 11:47:57;;;;;;;8.10;7.10;;;;;;;;;;5014187;28;20435;-66
2021/09/10 11:50:23;;;;;;;8.03;6.63;;;;;;;;;;5015105;28;20422;-66
2021/09/10 11:52:49;;;;;;;7.97;6.33;;;;;;;;;;5001654;28;20460;-66
2021/09/10 11:55:17;;;;;;;9.33;6.30;;;;;;;;;;5015273;28;20454;-66
2021/09/10 11:57:44;;;;;;;7.70;6.47;;;;;;;;;;5008257;28;20437;-66
2021/09/10 12:00:22;;;;;;;7.53;5.90;;;;;;;;;;5015428;28;20417;-66
2021/09/10 12:02:58;;;;;;;7.23;6.37;;;;;;;;;;5009893;28;20943;-66
2021/09/10 12:05:24;;;;;;;10.60;6.80;;;;;;;;;;5006569;28;20423;-66
2021/09/10 12:07:51;;;;;;;7.77;5.87;;;;;;;;;;5009113;28;20439;-67
2021/09/10 12:10:28;;;;;;;7.23;6.50;;;;;;;;;;5013142;28;20888;-66
2021/09/10 12:13:07;;;;;;;6.67;5.37;;;;;;;;;;4994652;28;20529;-67
2021/09/10 12:15:33;;;;;;;9.57;6.97;;;;;;;;;;5005960;28;20468;-67
2021/09/10 12:18:10;;;;;;;9.70;7.00;;;;;;;;;;5016967;28;20430;-67
2021/09/10 12:20:37;;;;;;;8.73;7.00;;;;;;;;;;5009504;28;20431;-66
2021/09/10 12:23:04;;;;;;;8.33;6.33;;;;;;;;;;5011107;28;20542;-66
2021/09/10 12:25:30;;;;;;;7.20;6.00;;;;;;;;;;5012752;28;20438;-66
2021/09/10 12:27:58;;;;;;;8.07;7.17;;;;;;;;;;5008016;28;20924;-66
2021/09/10 12:30:25;;;;;;;9.47;6.30;;;;;;;;;;5012919;28;20441;-66
2021/09/10 12:32:51;;;;;;;9.57;7.37;;;;;;;;;;5012598;28;21160;-66
2021/09/10 12:35:17;;;;;;;11.23;6.73;;;;;;;;;;5017006;28;20534;-66
2021/09/10 12:37:53;;;;;;;7.50;6.70;;;;;;;;;;5007533;28;20431;-67
2021/09/10 12:40:20;;;;;;;10.37;7.40;;;;;;;;;;5000582;28;20427;-66
2021/09/10 12:42:48;;;;;;;10.40;7.23;;;;;;;;;;5006727;28;20497;-66
2021/09/10 12:45:14;;;;;;;10.33;7.03;;;;;;;;;;5010302;28;20439;-66
2021/09/10 12:47:40;;;;;;;14.23;7.77;;;;;;;;;;5009513;28;20423;-66
2021/09/10 12:50:08;;;;;;;11.10;5.50;;;;;;;;;;5013185;28;20761;-65
2021/09/10 12:52:34;;;;;;;10.57;7.53;;;;;;;;;;5010250;28;20493;-66
2021/09/10 12:55:02;;;;;;;9.40;6.40;;;;;;;;;;5014303;28;20458;-69
2021/09/10 12:57:28;;;;;;;9.57;6.40;;;;;;;;;;5007818;28;20777;-66
2021/09/10 12:59:54;;;;;;;7.93;6.47;;;;;;;;;;5011247;28;20936;-67
2021/09/10 13:02:20;;;;;;;10.20;7.77;;;;;;;;;;5011415;28;22297;-67
2021/09/10 13:04:46;;;;;;;11.53;7.20;;;;;;;;;;5009884;28;20447;-66
2021/09/10 13:07:12;;;;;;;7.90;6.87;;;;;;;;;;5009293;28;20853;-66
2021/09/10 13:09:38;;;;;;;8.80;7.30;;;;;;;;;;5013698;28;20423;-66
2021/09/10 13:12:05;;;;;;;10.40;7.50;;;;;;;;;;5012041;28;20419;-66
2021/09/10 13:14:31;;;;;;;9.50;7.47;;;;;;;;;;5009002;28;20542;-66
2021/09/10 13:16:57;;;;;;;8.10;7.17;;;;;;;;;;5011257;28;20412;-67
2021/09/10 13:19:23;;;;;;;11.07;7.67;;;;;;;;;;5007483;28;20427;-67
2021/09/10 13:21:49;;;;;;;7.83;5.97;;;;;;;;;;5008254;28;20509;-66
2021/09/10 13:24:17;;;;;;;7.57;6.77;;;;;;;;;;5010894;28;20439;-67
2021/09/10 13:26:45;;;;;;;7.73;6.63;;;;;;;;;;5011161;28;20423;-65
2021/09/10 13:29:11;;;;;;;10.03;7.03;;;;;;;;;;4975966;28;20943;-68
2021/09/10 13:31:37;;;;;;;10.03;7.50;;;;;;;;;;5007269;28;20952;-69
2021/09/10 13:34:03;;;;;;;10.23;7.40;;;;;;;;;;5012088;28;20467;-70
2021/09/10 13:36:29;;;;;;;9.03;7.03;;;;;;;;;;5007416;28;20575;-69
2021/09/10 13:38:55;;;;;;;7.63;5.90;;;;;;;;;;4987291;28;20428;-70
2021/09/10 13:41:21;;;;;;;10.10;7.50;;;;;;;;;;5009406;28;20429;-67
2021/09/10 13:43:47;;;;;;;8.50;6.30;;;;;;;;;;5004141;28;20586;-68
2021/09/10 13:46:13;;;;;;;8.70;7.53;;;;;;;;;;5011032;28;20891;-69
2021/09/10 13:48:39;;;;;;;7.97;6.77;;;;;;;;;;5009893;28;20489;-67
2021/09/10 13:51:07;;;;;;;10.33;6.47;;;;;;;;;;5012205;28;20495;-69
2021/09/10 13:53:33;;;;;;;9.27;7.13;;;;;;;;;;5011053;28;20439;-67
2021/09/10 13:55:59;;;;;;;8.63;6.83;;;;;;;;;;5008816;28;20415;-69
2021/09/10 13:58:25;;;;;;;7.80;6.40;;;;;;;;;;5010044;28;20419;-69
2021/09/10 14:00:51;;;;;;;12.50;9.10;;;;;;;;;;5006369;28;20412;-68
2021/09/10 14:03:17;;;;;;;9.27;7.50;;;;;;;;;;4994140;28;20540;-68
2021/09/10 14:05:43;;;;;;;7.43;6.60;;;;;;;;;;4991004;28;20423;-66
2021/09/10 14:08:09;;;;;;;9.37;6.00;;;;;;;;;;4999955;28;20412;-69
2021/09/10 14:10:35;;;;;;;10.73;7.60;;;;;;;;;;4999639;28;20424;-70
2021/09/10 14:13:01;;;;;;;11.23;6.97;;;;;;;;;;5007419;28;20514;-65
2021/09/10 14:15:28;;;;;;;9.53;6.83;;;;;;;;;;5006229;28;20552;-65
2021/09/10 14:17:54;;;;;;;9.70;7.00;;;;;;;;;;5010069;28;20979;-64
2021/09/10 14:20:20;;;;;;;6.90;6.20;;;;;;;;;;5008249;28;20526;-65
2021/09/10 14:22:46;;;;;;;8.87;6.60;;;;;;;;;;5012900;28;20451;-65
2021/09/10 14:25:12;;;;;;;8.60;6.60;;;;;;;;;;5010018;28;20974;-65
2021/09/10 14:27:38;;;;;;;7.90;6.40;;;;;;;;;;4992301;28;20552;-65
2021/09/10 14:30:05;;;;;;;8.57;6.80;;;;;;;;;;5005183;28;20447;-64
2021/09/10 14:32:31;;;;;;;9.07;6.00;;;;;;;;;;5006784;28;20450;-62
2021/09/10 14:34:57;;;;;;;8.00;6.80;;;;;;;;;;5001753;28;20520;-65
2021/09/10 14:37:23;;;;;;;9.57;6.77;;;;;;;;;;5010293;28;20422;-64